createdAt,value
2018-12-13T00:02:21.778Z,14.23
2018-12-13T00:04:52.640Z,14.30
2018-12-13T00:07:23.412Z,13.80
2018-12-13T00:09:55.355Z,15.40
2018-12-13T00:12:25.967Z,15.97
2018-12-13T00:14:56.905Z,14.30
2018-12-13T00:17:27.570Z,14.20
2018-12-13T00:19:58.490Z,14.80
2018-12-13T00:22:29.498Z,14.33
2018-12-13T00:25:00.345Z,13.17
2018-12-13T00:27:31.422Z,13.47
2018-12-13T00:30:03.281Z,13.87
2018-12-13T00:32:33.967Z,14.30
2018-12-13T00:35:04.480Z,14.27
2018-12-13T00:37:35.182Z,13.43
2018-12-13T00:40:06.166Z,13.93
2018-12-13T00:42:37.094Z,13.83
2018-12-13T00:45:08.205Z,13.83
2018-12-13T00:47:39.033Z,14.20
2018-12-13T00:50:10.091Z,14.73
2018-12-13T00:52:41.136Z,12.20
2018-12-13T00:55:12.073Z,11.73
2018-12-13T00:57:42.790Z,11.63
2018-12-13T01:00:14.039Z,11.00
2018-12-13T01:02:44.928Z,11.67
2018-12-13T01:05:16.147Z,11.00
2018-12-13T01:07:46.735Z,10.50
2018-12-13T01:10:18.955Z,10.90
2018-12-13T01:12:49.813Z,9.93
2018-12-13T01:15:20.739Z,10.10
2018-12-13T01:17:51.351Z,10.37
2018-12-13T01:20:22.533Z,10.57
2018-12-13T01:22:53.246Z,11.47
2018-12-13T01:25:24.236Z,10.83
2018-12-13T01:27:55.171Z,11.00
2018-12-13T01:30:25.805Z,11.43
2018-12-13T01:32:56.569Z,10.97
2018-12-13T01:35:27.296Z,10.40
2018-12-13T01:37:57.910Z,10.37
2018-12-13T01:40:28.616Z,10.87
2018-12-13T01:42:59.611Z,10.90
2018-12-13T01:45:30.513Z,11.43
2018-12-13T01:48:01.224Z,10.47
2018-12-13T01:50:32.282Z,10.00
2018-12-13T01:53:03.879Z,10.20
2018-12-13T01:55:34.538Z,10.30
2018-12-13T01:58:05.729Z,10.33
2018-12-13T02:00:37.387Z,11.93
2018-12-13T02:03:08.629Z,11.97
2018-12-13T02:05:40.741Z,11.27
2018-12-13T02:08:11.254Z,12.67
2018-12-13T02:10:44.083Z,12.33
2018-12-13T02:13:15.396Z,11.83
2018-12-13T02:15:47.003Z,12.30
2018-12-13T02:18:18.534Z,12.93
2018-12-13T02:20:49.602Z,12.20
2018-12-13T02:23:21.712Z,11.60
2018-12-13T02:25:52.755Z,11.80
2018-12-13T02:28:24.104Z,11.87
2018-12-13T02:30:55.935Z,12.37
2018-12-13T02:33:27.819Z,11.60
2018-12-13T02:35:59.602Z,13.20
2018-12-13T02:38:31.947Z,12.37
2018-12-13T02:41:03.599Z,12.20
2018-12-13T02:43:34.862Z,11.80
2018-12-13T02:46:06.142Z,11.43
2018-12-13T02:48:37.014Z,12.07
2018-12-13T02:51:08.008Z,11.50
2018-12-13T02:53:39.285Z,11.63
2018-12-13T02:56:10.980Z,11.33
2018-12-13T02:58:41.670Z,12.07
2018-12-13T03:01:12.686Z,11.57
2018-12-13T03:03:44.183Z,11.80
2018-12-13T03:06:14.592Z,12.17
2018-12-13T03:08:46.557Z,11.60
2018-12-13T03:11:17.837Z,11.27
2018-12-13T03:13:49.253Z,11.27
2018-12-13T03:16:20.150Z,13.20
2018-12-13T03:18:52.008Z,14.23
2018-12-13T03:21:23.339Z,13.53
2018-12-13T03:23:54.916Z,12.80
2018-12-13T03:26:25.891Z,16.33
2018-12-13T03:28:57.403Z,15.10
2018-12-13T03:31:28.965Z,15.90
2018-12-13T03:33:59.989Z,15.37
2018-12-13T03:36:31.034Z,14.30
2018-12-13T03:39:02.298Z,16.97
2018-12-13T03:41:33.318Z,19.77
2018-12-13T03:44:04.831Z,16.37
2018-12-13T03:46:36.278Z,16.37
2018-12-13T03:49:08.952Z,18.50
2018-12-13T03:51:40.784Z,18.53
2018-12-13T03:54:11.904Z,16.77
2018-12-13T03:56:43.130Z,17.17
2018-12-13T03:59:14.755Z,17.37
2018-12-13T04:01:45.057Z,16.33
2018-12-13T04:04:15.880Z,16.63
2018-12-13T04:06:47.167Z,15.43
2018-12-13T04:09:18.447Z,17.80
2018-12-13T04:11:50.209Z,18.50
2018-12-13T04:14:21.261Z,17.47
2018-12-13T04:16:52.662Z,18.17
2018-12-13T04:19:24.286Z,17.73
2018-12-13T04:21:56.247Z,17.57
2018-12-13T04:24:28.146Z,17.70
2018-12-13T04:26:59.526Z,16.23
2018-12-13T04:29:31.280Z,17.63
2018-12-13T04:32:02.827Z,18.00
2018-12-13T04:34:34.233Z,16.53
2018-12-13T04:37:05.422Z,17.37
2018-12-13T04:39:36.867Z,15.57
2018-12-13T04:42:07.984Z,15.87
2018-12-13T04:44:38.651Z,15.83
2018-12-13T04:47:08.911Z,15.70
2018-12-13T04:49:39.266Z,15.70
2018-12-13T04:52:09.345Z,15.93
2018-12-13T04:54:39.948Z,15.47
2018-12-13T04:57:10.550Z,17.20
2018-12-13T04:59:41.125Z,15.50
2018-12-13T05:02:12.230Z,16.17
2018-12-13T05:04:43.621Z,15.63
2018-12-13T05:07:15.158Z,16.70
2018-12-13T05:09:47.204Z,16.80
2018-12-13T05:12:18.386Z,15.90
2018-12-13T05:14:49.134Z,15.43
2018-12-13T05:17:21.323Z,13.97
2018-12-13T05:19:53.662Z,14.77
2018-12-13T05:22:25.840Z,15.27
2018-12-13T05:24:56.774Z,15.23
2018-12-13T05:27:27.758Z,16.73
2018-12-13T05:29:59.500Z,14.43
2018-12-13T05:32:31.285Z,14.40
2018-12-13T05:35:02.539Z,14.13
2018-12-13T05:37:34.061Z,14.87
2018-12-13T05:40:05.807Z,15.40
2018-12-13T05:42:37.623Z,16.10
2018-12-13T05:45:08.320Z,14.80
2018-12-13T05:47:39.401Z,15.13
2018-12-13T05:50:10.408Z,13.90
2018-12-13T05:52:42.154Z,15.07
2018-12-13T05:55:13.973Z,14.63
2018-12-13T05:57:45.295Z,13.50
2018-12-13T06:00:17.038Z,14.33
2018-12-13T06:02:48.507Z,14.53
2018-12-13T06:05:20.015Z,12.57
2018-12-13T06:07:54.944Z,12.23
2018-12-13T06:10:24.138Z,13.00
2018-12-13T06:12:55.270Z,10.70
2018-12-13T06:15:26.372Z,9.87
2018-12-13T06:17:57.074Z,11.17
2018-12-13T06:20:28.010Z,10.30
2018-12-13T06:22:59.499Z,9.77
2018-12-13T06:25:31.185Z,10.37
2018-12-13T06:28:02.651Z,9.87
2018-12-13T06:30:34.579Z,10.40
2018-12-13T06:33:05.842Z,9.27
2018-12-13T06:35:37.142Z,10.00
2018-12-13T06:38:09.780Z,11.13
2018-12-13T06:40:41.535Z,10.20
2018-12-13T06:43:12.892Z,9.90
2018-12-13T06:45:44.181Z,10.30
2018-12-13T06:48:15.519Z,12.70
2018-12-13T06:50:46.699Z,11.53
2018-12-13T06:53:17.873Z,10.13
2018-12-13T06:55:49.464Z,11.50
2018-12-13T06:58:20.450Z,11.67
2018-12-13T07:00:52.016Z,12.13
2018-12-13T07:03:23.073Z,13.13
2018-12-13T07:05:54.469Z,12.13
2018-12-13T07:08:25.899Z,13.33
2018-12-13T07:10:57.614Z,12.03
2018-12-13T07:13:28.923Z,11.90
2018-12-13T07:15:58.816Z,12.20
2018-12-13T07:18:28.730Z,11.83
2018-12-13T07:20:58.764Z,12.07
2018-12-13T07:23:29.147Z,12.33
2018-12-13T07:25:59.631Z,12.37
2018-12-13T07:28:30.395Z,11.40
2018-12-13T07:31:00.780Z,11.37
2018-12-13T07:33:30.881Z,12.43
2018-12-13T07:36:00.851Z,11.87
2018-12-13T07:38:31.536Z,12.60
2018-12-13T07:41:02.226Z,12.60
2018-12-13T07:43:33.618Z,11.97
2018-12-13T07:46:03.396Z,11.70
2018-12-13T07:48:34.056Z,10.80
2018-12-13T07:51:04.748Z,10.50
2018-12-13T07:53:35.618Z,10.07
2018-12-13T07:56:05.604Z,9.67
2018-12-13T07:58:35.757Z,11.10
2018-12-13T08:01:06.938Z,10.10
2018-12-13T08:03:37.702Z,14.77
2018-12-13T08:06:08.497Z,12.43
2018-12-13T08:08:38.941Z,12.97
2018-12-13T08:11:10.053Z,13.77
2018-12-13T08:13:41.075Z,13.73
2018-12-13T08:16:11.488Z,13.80
2018-12-13T08:18:42.224Z,13.57
2018-12-13T08:21:13.273Z,13.33
2018-12-13T08:23:44.148Z,13.13
2018-12-13T08:26:15.598Z,15.17
2018-12-13T08:28:46.382Z,14.53
2018-12-13T08:31:17.083Z,13.30
2018-12-13T08:33:47.585Z,12.37
2018-12-13T08:36:18.788Z,12.53
2018-12-13T08:38:49.455Z,11.63
2018-12-13T08:41:20.468Z,9.70
2018-12-13T08:43:51.162Z,11.87
2018-12-13T08:46:21.727Z,11.23
2018-12-13T08:48:52.649Z,10.13
2018-12-13T08:51:22.650Z,10.03
2018-12-13T08:53:53.215Z,11.17
2018-12-13T08:56:23.759Z,10.40
2018-12-13T08:58:54.233Z,10.53
2018-12-13T09:01:24.811Z,10.03
2018-12-13T09:03:55.390Z,10.20
2018-12-13T09:06:25.866Z,10.67
2018-12-13T09:08:56.628Z,9.53
2018-12-13T09:11:27.621Z,9.50
2018-12-13T09:13:58.426Z,10.30
2018-12-13T09:16:31.673Z,9.43
2018-12-13T09:19:01.905Z,9.10
2018-12-13T09:21:33.209Z,8.23
2018-12-13T09:24:03.949Z,6.53
2018-12-13T09:26:33.836Z,7.00
2018-12-13T09:29:04.534Z,7.80
2018-12-13T09:31:34.883Z,6.60
2018-12-13T09:34:05.926Z,6.93
2018-12-13T09:36:35.925Z,6.67
2018-12-13T09:39:08.132Z,6.10
2018-12-13T09:41:38.603Z,5.70
2018-12-13T09:44:13.022Z,5.50
2018-12-13T09:46:44.168Z,5.43
2018-12-13T09:49:14.616Z,6.50
2018-12-13T09:51:45.792Z,6.70
2018-12-13T09:54:16.603Z,6.67
2018-12-13T09:56:48.076Z,5.60
2018-12-13T09:59:18.556Z,5.80
2018-12-13T10:01:48.989Z,5.83
2018-12-13T10:04:19.606Z,6.10
2018-12-13T10:06:50.104Z,5.77
2018-12-13T10:09:21.198Z,5.43
2018-12-13T10:11:51.798Z,5.13
2018-12-13T10:14:22.243Z,5.80
2018-12-13T10:16:52.642Z,5.23
2018-12-13T10:19:22.834Z,4.90
2018-12-13T10:21:54.819Z,5.43
2018-12-13T10:24:26.003Z,4.80
2018-12-13T10:26:56.107Z,5.00
2018-12-13T10:29:29.437Z,4.83
2018-12-13T10:32:00.320Z,4.57
2018-12-13T10:34:30.924Z,4.53
2018-12-13T10:37:01.425Z,4.57
2018-12-13T10:39:32.329Z,4.00
2018-12-13T10:42:02.669Z,3.33
2018-12-13T10:44:36.502Z,4.67
2018-12-13T10:47:07.230Z,4.53
2018-12-13T10:49:37.551Z,4.97
2018-12-13T10:52:08.239Z,4.23
2018-12-13T10:54:38.597Z,4.43
2018-12-13T10:57:08.723Z,4.43
2018-12-13T10:59:38.987Z,4.60
2018-12-13T11:02:15.343Z,4.33
2018-12-13T11:04:47.664Z,3.97
2018-12-13T11:07:17.791Z,3.87
2018-12-13T11:09:49.166Z,4.00
2018-12-13T11:12:19.283Z,3.70
2018-12-13T11:14:50.064Z,3.73
2018-12-13T11:17:20.952Z,3.70
2018-12-13T11:19:51.693Z,3.83
2018-12-13T11:22:22.369Z,4.57
2018-12-13T11:24:52.120Z,4.07
2018-12-13T11:27:33.738Z,4.10
2018-12-13T11:30:39.694Z,3.90
2018-12-13T11:33:10.389Z,3.97
2018-12-13T11:35:41.329Z,3.80
2018-12-13T11:38:12.555Z,3.93
2018-12-13T11:40:43.803Z,4.63
2018-12-13T11:43:14.914Z,4.47
2018-12-13T11:45:45.760Z,5.47
2018-12-13T11:48:17.135Z,5.23
2018-12-13T11:50:48.721Z,6.03
2018-12-13T11:53:20.268Z,5.77
2018-12-13T11:55:51.698Z,5.13
2018-12-13T11:58:23.188Z,4.73
2018-12-13T12:00:54.436Z,4.33
2018-12-13T12:03:25.960Z,3.80
2018-12-13T12:05:56.929Z,3.33
2018-12-13T12:08:28.458Z,3.87
2018-12-13T12:10:59.560Z,4.30
2018-12-13T12:13:30.857Z,4.50
2018-12-13T12:16:02.873Z,4.00
2018-12-13T12:18:34.535Z,4.93
2018-12-13T12:21:07.561Z,4.80
2018-12-13T12:23:39.131Z,6.33
2018-12-13T12:26:11.486Z,5.07
2018-12-13T12:28:42.399Z,4.87
2018-12-13T12:31:13.249Z,5.83
2018-12-13T12:33:44.767Z,5.57
2018-12-13T12:36:16.186Z,5.70
2018-12-13T12:38:47.498Z,6.27
2018-12-13T12:41:18.539Z,6.03
2018-12-13T12:43:49.532Z,6.13
2018-12-13T12:46:21.254Z,6.07
2018-12-13T12:48:52.300Z,6.17
2018-12-13T12:51:23.260Z,6.20
2018-12-13T12:53:54.169Z,6.33
2018-12-13T12:56:24.790Z,6.00
2018-12-13T12:58:55.322Z,5.90
2018-12-13T13:01:26.059Z,5.90
2018-12-13T13:03:56.934Z,5.33
2018-12-13T13:06:27.511Z,5.90
2018-12-13T13:08:58.334Z,5.73
2018-12-13T13:11:29.292Z,5.07
2018-12-13T13:13:59.730Z,5.13
2018-12-13T13:16:30.460Z,5.23
2018-12-13T13:19:01.152Z,5.03
2018-12-13T13:21:31.970Z,5.83
2018-12-13T13:24:02.787Z,5.73
2018-12-13T13:26:33.797Z,5.93
2018-12-13T13:29:04.494Z,6.47
2018-12-13T13:31:35.439Z,6.50
2018-12-13T13:34:06.341Z,6.67
2018-12-13T13:36:36.867Z,7.40
2018-12-13T13:39:09.135Z,8.13
2018-12-13T13:41:39.564Z,7.03
2018-12-13T13:44:11.405Z,7.07
2018-12-13T13:46:42.482Z,7.53
2018-12-13T13:49:13.319Z,7.80
2018-12-13T13:51:44.561Z,8.37
2018-12-13T13:54:15.614Z,8.17
2018-12-13T13:56:46.649Z,8.63
2018-12-13T13:59:17.645Z,8.03
2018-12-13T14:01:49.218Z,7.63
2018-12-13T14:04:19.917Z,8.60
2018-12-13T14:06:51.402Z,7.90
2018-12-13T14:09:22.341Z,8.80
2018-12-13T14:11:53.402Z,8.70
2018-12-13T14:14:24.632Z,8.30
2018-12-13T14:16:55.916Z,8.70
2018-12-13T14:19:27.251Z,8.57
2018-12-13T14:21:58.711Z,8.97
2018-12-13T14:24:29.862Z,8.77
2018-12-13T14:27:01.202Z,8.83
2018-12-13T14:29:32.659Z,9.00
2018-12-13T14:32:04.770Z,8.03
2018-12-13T14:34:36.550Z,8.40
2018-12-13T14:37:07.599Z,8.77
2018-12-13T14:39:44.455Z,8.67
2018-12-13T14:42:12.865Z,8.17
2018-12-13T14:44:44.246Z,9.53
2018-12-13T14:47:15.549Z,9.60
2018-12-13T14:49:46.628Z,9.10
2018-12-13T14:52:17.799Z,9.17
2018-12-13T14:54:47.675Z,9.97
2018-12-13T14:57:17.699Z,11.10
2018-12-13T14:59:47.745Z,10.97
2018-12-13T15:02:18.722Z,9.97
2018-12-13T15:04:49.182Z,10.33
2018-12-13T15:07:19.668Z,10.90
2018-12-13T15:09:51.077Z,10.80
2018-12-13T15:12:21.388Z,12.30
2018-12-13T15:14:51.558Z,10.70
2018-12-13T15:17:22.700Z,11.20
2018-12-13T15:19:53.766Z,10.27
2018-12-13T15:22:23.985Z,10.03
2018-12-13T15:24:53.904Z,9.63
2018-12-13T15:27:24.862Z,10.37
2018-12-13T15:29:55.495Z,10.37
2018-12-13T15:32:25.837Z,10.60
2018-12-13T15:34:56.937Z,10.00
2018-12-13T15:37:27.549Z,9.73
2018-12-13T15:39:58.679Z,10.23
2018-12-13T15:42:29.743Z,11.33
2018-12-13T15:45:00.969Z,10.50
2018-12-13T15:47:31.624Z,10.60
2018-12-13T15:50:02.197Z,9.93
2018-12-13T15:52:33.036Z,11.00
2018-12-13T15:55:03.075Z,11.23
2018-12-13T15:57:33.218Z,12.33
2018-12-13T16:00:03.398Z,10.83
2018-12-13T16:02:33.352Z,12.67
2018-12-13T16:05:03.491Z,10.63
2018-12-13T16:07:33.528Z,12.43
2018-12-13T16:10:04.040Z,11.27
2018-12-13T16:12:34.275Z,11.43
2018-12-13T16:15:04.981Z,11.50
2018-12-13T16:17:35.134Z,10.90
2018-12-13T16:20:05.952Z,9.80
2018-12-13T16:22:36.149Z,10.10
2018-12-13T16:25:06.195Z,9.73
2018-12-13T16:27:36.296Z,9.80
2018-12-13T16:30:07.325Z,15.40
2018-12-13T16:32:37.470Z,16.43
2018-12-13T16:35:07.559Z,20.03
2018-12-13T16:37:37.888Z,22.40
2018-12-13T16:40:10.448Z,23.87
2018-12-13T16:42:40.449Z,23.37
2018-12-13T16:45:10.649Z,22.60
2018-12-13T16:47:40.729Z,23.90
2018-12-13T16:50:10.797Z,24.60
2018-12-13T16:52:40.788Z,26.17
2018-12-13T16:55:10.681Z,28.00
2018-12-13T16:57:40.775Z,28.43
2018-12-13T17:00:10.849Z,28.37
2018-12-13T17:02:40.954Z,30.43
2018-12-13T17:05:11.137Z,31.90
2018-12-13T17:07:41.114Z,30.33
2018-12-13T17:10:16.556Z,31.17
2018-12-13T17:12:43.464Z,30.57
2018-12-13T17:15:13.614Z,30.73
2018-12-13T17:17:43.719Z,29.90
2018-12-13T17:20:13.946Z,27.50
2018-12-13T17:22:43.986Z,26.80
2018-12-13T17:25:13.834Z,25.27
2018-12-13T17:27:43.902Z,24.13
2018-12-13T17:30:13.933Z,26.33
2018-12-13T17:32:44.002Z,26.40
2018-12-13T17:35:14.156Z,25.70
2018-12-13T17:37:44.201Z,24.80
2018-12-13T17:40:14.306Z,26.40
2018-12-13T17:42:44.419Z,26.80
2018-12-13T17:45:14.419Z,24.20
2018-12-13T17:47:44.352Z,23.17
2018-12-13T17:50:14.298Z,23.03
2018-12-13T17:52:44.393Z,22.83
2018-12-13T17:55:14.332Z,21.33
2018-12-13T17:57:44.230Z,21.10
2018-12-13T18:00:14.944Z,22.37
2018-12-13T18:02:44.799Z,21.83
2018-12-13T18:05:14.727Z,23.00
2018-12-13T18:07:44.752Z,20.03
2018-12-13T18:10:14.783Z,20.07
2018-12-13T18:12:44.937Z,19.73
2018-12-13T18:15:15.964Z,20.67
2018-12-13T18:17:46.159Z,18.50
2018-12-13T18:20:16.184Z,17.20
2018-12-13T18:22:46.466Z,18.37
2018-12-13T18:25:16.291Z,16.03
2018-12-13T18:27:46.686Z,16.70
2018-12-13T18:30:17.413Z,14.80
2018-12-13T18:32:48.155Z,14.37
2018-12-13T18:35:18.661Z,14.87
2018-12-13T18:37:49.231Z,16.23
2018-12-13T18:40:20.414Z,16.97
2018-12-13T18:42:50.366Z,17.07
2018-12-13T18:45:24.171Z,17.43
2018-12-13T18:47:55.141Z,16.63
2018-12-13T18:50:25.315Z,15.50
2018-12-13T18:52:56.600Z,14.17
2018-12-13T18:55:26.473Z,16.03
2018-12-13T18:57:56.604Z,15.17
2018-12-13T19:00:26.677Z,14.40
2018-12-13T19:02:57.534Z,15.30
2018-12-13T19:05:28.789Z,14.20
2018-12-13T19:07:59.196Z,14.30
2018-12-13T19:10:29.467Z,15.20
2018-12-13T19:12:59.809Z,14.03
2018-12-13T19:15:30.637Z,14.57
2018-12-13T19:18:01.243Z,15.30
2018-12-13T19:20:31.906Z,14.27
2018-12-13T19:23:02.445Z,13.77
2018-12-13T19:25:32.283Z,14.37
2018-12-13T19:28:03.296Z,15.97
2018-12-13T19:30:33.568Z,15.93
2018-12-13T19:33:04.815Z,14.27
2018-12-13T19:35:35.005Z,18.23
2018-12-13T19:38:05.106Z,25.87
2018-12-13T19:40:36.184Z,27.03
2018-12-13T19:43:07.216Z,27.93
2018-12-13T19:45:37.601Z,28.43
2018-12-13T19:48:08.968Z,34.67
2018-12-13T19:50:39.873Z,31.83
2018-12-13T19:53:13.625Z,28.17
2018-12-13T19:55:43.811Z,19.07
2018-12-13T19:58:15.521Z,18.40
2018-12-13T20:00:45.759Z,15.77
2018-12-13T20:03:15.802Z,16.93
2018-12-13T20:05:47.825Z,15.73
2018-12-13T20:08:18.010Z,16.47
2018-12-13T20:10:54.496Z,19.03
2018-12-13T20:13:20.704Z,17.67
2018-12-13T20:15:50.992Z,17.07
2018-12-13T20:18:21.135Z,15.80
2018-12-13T20:20:51.401Z,18.37
2018-12-13T20:23:21.662Z,18.47
2018-12-13T20:25:51.763Z,17.20
2018-12-13T20:28:22.189Z,15.97
2018-12-13T20:30:52.307Z,15.77
2018-12-13T20:33:22.370Z,15.40
2018-12-13T20:35:52.427Z,15.53
2018-12-13T20:38:22.551Z,15.10
2018-12-13T20:40:52.540Z,16.13
2018-12-13T20:43:22.489Z,16.93
2018-12-13T20:45:52.566Z,15.90
2018-12-13T20:48:22.476Z,16.20
2018-12-13T20:50:52.453Z,15.17
2018-12-13T20:53:22.407Z,17.13
2018-12-13T20:55:52.223Z,17.40
2018-12-13T20:58:22.435Z,17.07
2018-12-13T21:00:52.427Z,18.13
2018-12-13T21:03:22.344Z,18.13
2018-12-13T21:05:52.347Z,21.23
2018-12-13T21:08:22.372Z,20.23
2018-12-13T21:10:52.324Z,19.53
2018-12-13T21:13:22.401Z,20.93
2018-12-13T21:15:52.531Z,21.73
2018-12-13T21:18:22.605Z,22.33
2018-12-13T21:20:52.687Z,26.10
2018-12-13T21:23:23.054Z,23.33
2018-12-13T21:25:52.986Z,23.40
2018-12-13T21:28:23.001Z,23.17
2018-12-13T21:30:53.164Z,23.13
2018-12-13T21:33:23.249Z,22.17
2018-12-13T21:35:53.545Z,19.97
2018-12-13T21:38:23.609Z,21.23
2018-12-13T21:40:53.710Z,21.17
2018-12-13T21:43:23.962Z,19.33
2018-12-13T21:45:54.130Z,18.57
2018-12-13T21:48:24.229Z,19.60
2018-12-13T21:50:54.262Z,19.60
2018-12-13T21:53:25.359Z,19.73
2018-12-13T21:55:55.212Z,19.57
2018-12-13T21:58:25.906Z,19.17
2018-12-13T22:00:56.879Z,19.77
2018-12-13T22:03:27.563Z,17.83
2018-12-13T22:05:58.240Z,16.20
2018-12-13T22:08:28.822Z,16.13
2018-12-13T22:10:59.552Z,15.93
2018-12-13T22:13:30.209Z,16.20
2018-12-13T22:16:01.002Z,15.30
2018-12-13T22:18:32.411Z,15.57
2018-12-13T22:21:03.137Z,14.57
2018-12-13T22:23:34.000Z,14.37
2018-12-13T22:26:04.740Z,14.33
2018-12-13T22:28:35.553Z,14.10
2018-12-13T22:31:06.082Z,14.20
2018-12-13T22:33:36.641Z,13.03
2018-12-13T22:36:07.639Z,13.57
2018-12-13T22:38:38.162Z,12.97
2018-12-13T22:41:09.456Z,13.93
2018-12-13T22:43:40.276Z,13.13
2018-12-13T22:46:10.378Z,13.87
2018-12-13T22:48:41.129Z,13.53
2018-12-13T22:51:11.993Z,13.13
2018-12-13T22:53:42.179Z,13.67
2018-12-13T22:56:13.046Z,13.90
2018-12-13T22:58:43.954Z,12.97
2018-12-13T23:01:14.421Z,12.90
2018-12-13T23:03:45.395Z,13.03
2018-12-13T23:06:16.171Z,13.50
2018-12-13T23:08:47.064Z,13.43
2018-12-13T23:11:17.413Z,12.97
2018-12-13T23:13:47.999Z,12.10
2018-12-13T23:16:18.323Z,13.57
2018-12-13T23:18:48.556Z,12.13
2018-12-13T23:21:19.064Z,12.63
2018-12-13T23:23:49.808Z,14.10
2018-12-13T23:26:20.908Z,12.50
2018-12-13T23:28:51.377Z,12.97
2018-12-13T23:31:22.168Z,12.47
2018-12-13T23:33:52.628Z,12.53
2018-12-13T23:36:23.143Z,12.00
2018-12-13T23:38:53.890Z,12.23
2018-12-13T23:41:24.406Z,11.70
2018-12-13T23:43:54.732Z,12.50
2018-12-13T23:46:25.278Z,13.70
2018-12-13T23:48:55.854Z,12.43
2018-12-13T23:51:26.684Z,12.93
2018-12-13T23:53:57.012Z,12.87
2018-12-13T23:56:27.271Z,13.00
2018-12-13T23:58:58.150Z,13.10
